sensor_id;sensor_type;location;lat;lon;timestamp;temperature;humidity
31619;DHT22;18230;51.502;7.108;2023-08-12T00:03:13;22.50;99.90
31619;DHT22;18230;51.502;7.108;2023-08-12T00:08:14;22.60;99.90
31619;DHT22;18230;51.502;7.108;2023-08-12T00:13:14;22.60;99.90
31619;DHT22;18230;51.502;7.108;2023-08-12T00:18:17;22.70;99.90
31619;DHT22;18230;51.502;7.108;2023-08-12T00:23:18;22.70;99.90
31619;DHT22;18230;51.502;7.108;2023-08-12T00:28:19;22.70;99.90
31619;DHT22;18230;51.502;7.108;2023-08-12T00:33:19;22.60;99.90
31619;DHT22;18230;51.502;7.108;2023-08-12T00:38:20;22.60;99.90
31619;DHT22;18230;51.502;7.108;2023-08-12T00:43:21;22.60;99.90
31619;DHT22;18230;51.502;7.108;2023-08-12T00:48:22;22.60;99.90
31619;DHT22;18230;51.502;7.108;2023-08-12T00:53:23;22.60;99.90
31619;DHT22;18230;51.502;7.108;2023-08-12T00:58:25;22.60;99.90
31619;DHT22;18230;51.502;7.108;2023-08-12T01:03:25;22.60;99.90
31619;DHT22;18230;51.502;7.108;2023-08-12T01:08:30;22.60;99.90
31619;DHT22;18230;51.502;7.108;2023-08-12T01:13:51;22.60;99.90
31619;DHT22;18230;51.502;7.108;2023-08-12T01:18:53;22.50;99.90
31619;DHT22;18230;51.502;7.108;2023-08-12T01:23:53;22.40;99.90
31619;DHT22;18230;51.502;7.108;2023-08-12T01:28:54;22.40;99.90
31619;DHT22;18230;51.502;7.108;2023-08-12T01:34:16;22.40;99.90
31619;DHT22;18230;51.502;7.108;2023-08-12T01:39:23;22.40;99.90
31619;DHT22;18230;51.502;7.108;2023-08-12T01:44:24;22.40;99.90
31619;DHT22;18230;51.502;7.108;2023-08-12T01:49:25;22.40;99.90
31619;DHT22;18230;51.502;7.108;2023-08-12T01:54:26;22.30;99.90
31619;DHT22;18230;51.502;7.108;2023-08-12T01:59:26;22.20;99.90
31619;DHT22;18230;51.502;7.108;2023-08-12T02:04:27;22.30;99.90
31619;DHT22;18230;51.502;7.108;2023-08-12T02:09:28;22.30;99.90
31619;DHT22;18230;51.502;7.108;2023-08-12T02:14:28;22.30;99.90
31619;DHT22;18230;51.502;7.108;2023-08-12T02:19:29;22.40;99.90
31619;DHT22;18230;51.502;7.108;2023-08-12T02:24:29;22.30;99.90
31619;DHT22;18230;51.502;7.108;2023-08-12T02:29:30;22.30;99.90
31619;DHT22;18230;51.502;7.108;2023-08-12T02:34:31;22.30;99.90
31619;DHT22;18230;51.502;7.108;2023-08-12T02:39:31;22.30;99.90
31619;DHT22;18230;51.502;7.108;2023-08-12T02:44:32;22.30;99.90
31619;DHT22;18230;51.502;7.108;2023-08-12T02:49:33;22.30;99.90
31619;DHT22;18230;51.502;7.108;2023-08-12T02:54:33;22.20;99.90
31619;DHT22;18230;51.502;7.108;2023-08-12T02:59:34;22.10;99.90
31619;DHT22;18230;51.502;7.108;2023-08-12T03:04:34;22.10;99.90
31619;DHT22;18230;51.502;7.108;2023-08-12T03:09:35;22.20;99.90
31619;DHT22;18230;51.502;7.108;2023-08-12T03:14:36;22.10;99.90
31619;DHT22;18230;51.502;7.108;2023-08-12T03:19:36;22.00;99.90
31619;DHT22;18230;51.502;7.108;2023-08-12T03:24:39;22.00;99.90
31619;DHT22;18230;51.502;7.108;2023-08-12T03:29:40;22.10;99.90
31619;DHT22;18230;51.502;7.108;2023-08-12T03:34:41;22.10;99.90
31619;DHT22;18230;51.502;7.108;2023-08-12T03:39:41;22.10;99.90
31619;DHT22;18230;51.502;7.108;2023-08-12T03:44:43;22.00;99.90
31619;DHT22;18230;51.502;7.108;2023-08-12T03:49:43;21.90;99.90
31619;DHT22;18230;51.502;7.108;2023-08-12T03:54:44;22.00;99.90
31619;DHT22;18230;51.502;7.108;2023-08-12T03:59:45;22.00;99.90
31619;DHT22;18230;51.502;7.108;2023-08-12T04:04:45;22.00;99.90
31619;DHT22;18230;51.502;7.108;2023-08-12T04:09:46;22.00;99.90
31619;DHT22;18230;51.502;7.108;2023-08-12T04:14:47;22.00;99.90
31619;DHT22;18230;51.502;7.108;2023-08-12T04:19:48;22.00;99.90
31619;DHT22;18230;51.502;7.108;2023-08-12T04:24:50;22.00;99.90
31619;DHT22;18230;51.502;7.108;2023-08-12T04:29:50;22.00;99.90
31619;DHT22;18230;51.502;7.108;2023-08-12T04:34:51;22.10;99.90
31619;DHT22;18230;51.502;7.108;2023-08-12T04:45:49;22.00;99.90
31619;DHT22;18230;51.502;7.108;2023-08-12T04:50:49;22.00;99.90
31619;DHT22;18230;51.502;7.108;2023-08-12T04:55:50;21.80;99.90
31619;DHT22;18230;51.502;7.108;2023-08-12T05:00:51;21.80;99.90
31619;DHT22;18230;51.502;7.108;2023-08-12T05:05:52;21.80;99.90
31619;DHT22;18230;51.502;7.108;2023-08-12T05:10:53;21.90;99.90
31619;DHT22;18230;51.502;7.108;2023-08-12T05:15:54;22.00;99.90
31619;DHT22;18230;51.502;7.108;2023-08-12T05:20:55;22.10;99.90
31619;DHT22;18230;51.502;7.108;2023-08-12T05:25:55;22.30;99.90
31619;DHT22;18230;51.502;7.108;2023-08-12T05:30:56;22.40;99.90
31619;DHT22;18230;51.502;7.108;2023-08-12T05:35:57;22.50;99.90
31619;DHT22;18230;51.502;7.108;2023-08-12T05:40:57;22.50;99.90
31619;DHT22;18230;51.502;7.108;2023-08-12T05:45:58;22.50;99.90
31619;DHT22;18230;51.502;7.108;2023-08-12T05:50:58;22.40;99.90
31619;DHT22;18230;51.502;7.108;2023-08-12T05:55:59;22.40;99.90
31619;DHT22;18230;51.502;7.108;2023-08-12T06:01:00;22.30;99.90
31619;DHT22;18230;51.502;7.108;2023-08-12T06:06:01;22.30;99.90
31619;DHT22;18230;51.502;7.108;2023-08-12T06:11:01;22.30;99.90
31619;DHT22;18230;51.502;7.108;2023-08-12T06:16:05;22.20;99.90
31619;DHT22;18230;51.502;7.108;2023-08-12T06:21:06;22.30;99.90
31619;DHT22;18230;51.502;7.108;2023-08-12T06:26:12;22.30;99.90
31619;DHT22;18230;51.502;7.108;2023-08-12T06:31:13;22.30;99.90
31619;DHT22;18230;51.502;7.108;2023-08-12T06:36:13;22.30;99.90
31619;DHT22;18230;51.502;7.108;2023-08-12T06:41:14;22.20;99.90
31619;DHT22;18230;51.502;7.108;2023-08-12T06:46:15;22.30;99.90
31619;DHT22;18230;51.502;7.108;2023-08-12T06:51:15;22.20;99.90
31619;DHT22;18230;51.502;7.108;2023-08-12T06:56:16;22.20;99.90
31619;DHT22;18230;51.502;7.108;2023-08-12T07:01:16;22.20;99.90
31619;DHT22;18230;51.502;7.108;2023-08-12T07:06:18;22.10;99.90
31619;DHT22;18230;51.502;7.108;2023-08-12T07:11:18;22.00;99.90
31619;DHT22;18230;51.502;7.108;2023-08-12T07:16:19;22.00;99.90
31619;DHT22;18230;51.502;7.108;2023-08-12T07:21:19;22.00;99.90
31619;DHT22;18230;51.502;7.108;2023-08-12T07:26:20;22.10;99.90
31619;DHT22;18230;51.502;7.108;2023-08-12T07:31:21;22.10;99.90
31619;DHT22;18230;51.502;7.108;2023-08-12T07:36:22;22.10;99.90
31619;DHT22;18230;51.502;7.108;2023-08-12T07:41:22;22.20;99.90
31619;DHT22;18230;51.502;7.108;2023-08-12T07:46:24;22.20;99.90
31619;DHT22;18230;51.502;7.108;2023-08-12T07:51:24;22.20;99.90
31619;DHT22;18230;51.502;7.108;2023-08-12T07:56:25;22.20;99.90
31619;DHT22;18230;51.502;7.108;2023-08-12T08:01:26;22.20;99.90
31619;DHT22;18230;51.502;7.108;2023-08-12T08:06:26;22.50;99.90
31619;DHT22;18230;51.502;7.108;2023-08-12T08:11:29;22.80;99.90
31619;DHT22;18230;51.502;7.108;2023-08-12T08:16:30;23.00;99.90
31619;DHT22;18230;51.502;7.108;2023-08-12T08:21:31;23.10;99.90
31619;DHT22;18230;51.502;7.108;2023-08-12T08:26:31;22.90;99.90
31619;DHT22;18230;51.502;7.108;2023-08-12T08:31:32;22.70;99.90
31619;DHT22;18230;51.502;7.108;2023-08-12T08:36:36;22.60;99.90
31619;DHT22;18230;51.502;7.108;2023-08-12T08:41:47;22.70;99.90
31619;DHT22;18230;51.502;7.108;2023-08-12T08:47:01;23.00;99.90
31619;DHT22;18230;51.502;7.108;2023-08-12T08:52:10;23.10;99.90
31619;DHT22;18230;51.502;7.108;2023-08-12T08:57:11;23.00;99.90
31619;DHT22;18230;51.502;7.108;2023-08-12T09:02:17;23.00;99.90
31619;DHT22;18230;51.502;7.108;2023-08-12T09:07:18;23.00;99.90
31619;DHT22;18230;51.502;7.108;2023-08-12T09:12:20;23.10;99.90
31619;DHT22;18230;51.502;7.108;2023-08-12T09:17:21;23.30;99.90
31619;DHT22;18230;51.502;7.108;2023-08-12T09:22:24;23.20;99.90
31619;DHT22;18230;51.502;7.108;2023-08-12T09:27:25;23.10;99.90
31619;DHT22;18230;51.502;7.108;2023-08-12T09:32:29;23.00;99.90
31619;DHT22;18230;51.502;7.108;2023-08-12T09:37:29;23.00;99.90
31619;DHT22;18230;51.502;7.108;2023-08-12T09:42:30;23.00;99.90
31619;DHT22;18230;51.502;7.108;2023-08-12T09:47:33;23.00;99.90
31619;DHT22;18230;51.502;7.108;2023-08-12T09:52:40;22.90;99.90
31619;DHT22;18230;51.502;7.108;2023-08-12T09:57:42;22.90;99.90
31619;DHT22;18230;51.502;7.108;2023-08-12T10:02:45;22.90;99.90
31619;DHT22;18230;51.502;7.108;2023-08-12T10:07:47;23.00;99.90
31619;DHT22;18230;51.502;7.108;2023-08-12T10:12:48;22.90;99.90
31619;DHT22;18230;51.502;7.108;2023-08-12T10:17:51;23.10;99.90
31619;DHT22;18230;51.502;7.108;2023-08-12T10:22:53;23.10;99.90
31619;DHT22;18230;51.502;7.108;2023-08-12T10:27:55;23.10;99.90
31619;DHT22;18230;51.502;7.108;2023-08-12T10:32:55;23.00;99.90
31619;DHT22;18230;51.502;7.108;2023-08-12T10:37:57;23.00;99.90
31619;DHT22;18230;51.502;7.108;2023-08-12T10:42:58;23.10;99.90
31619;DHT22;18230;51.502;7.108;2023-08-12T10:52:59;23.90;99.90
31619;DHT22;18230;51.502;7.108;2023-08-12T10:58:33;23.90;99.90
31619;DHT22;18230;51.502;7.108;2023-08-12T11:03:35;23.80;99.90
31619;DHT22;18230;51.502;7.108;2023-08-12T11:08:36;24.20;99.90
31619;DHT22;18230;51.502;7.108;2023-08-12T11:14:21;24.30;99.90
31619;DHT22;18230;51.502;7.108;2023-08-12T11:19:14;24.30;99.90
31619;DHT22;18230;51.502;7.108;2023-08-12T11:24:15;24.10;99.90
31619;DHT22;18230;51.502;7.108;2023-08-12T11:29:16;23.90;99.90
31619;DHT22;18230;51.502;7.108;2023-08-12T11:34:18;23.90;99.90
31619;DHT22;18230;51.502;7.108;2023-08-12T11:39:19;23.80;99.90
31619;DHT22;18230;51.502;7.108;2023-08-12T11:44:23;24.00;99.90
31619;DHT22;18230;51.502;7.108;2023-08-12T11:49:23;24.10;99.90
31619;DHT22;18230;51.502;7.108;2023-08-12T11:54:24;24.30;99.90
31619;DHT22;18230;51.502;7.108;2023-08-12T11:59:25;24.60;99.90
31619;DHT22;18230;51.502;7.108;2023-08-12T12:04:26;24.70;99.90
31619;DHT22;18230;51.502;7.108;2023-08-12T12:09:28;24.80;99.90
31619;DHT22;18230;51.502;7.108;2023-08-12T12:14:30;24.60;99.90
31619;DHT22;18230;51.502;7.108;2023-08-12T12:19:31;24.40;99.90
31619;DHT22;18230;51.502;7.108;2023-08-12T12:24:38;24.10;99.90
31619;DHT22;18230;51.502;7.108;2023-08-12T12:29:44;23.90;99.90
31619;DHT22;18230;51.502;7.108;2023-08-12T12:34:44;23.60;99.90
31619;DHT22;18230;51.502;7.108;2023-08-12T12:39:51;23.20;99.90
31619;DHT22;18230;51.502;7.108;2023-08-12T12:44:52;23.00;99.90
31619;DHT22;18230;51.502;7.108;2023-08-12T12:49:52;22.80;99.90
31619;DHT22;18230;51.502;7.108;2023-08-12T12:54:53;22.70;99.90
31619;DHT22;18230;51.502;7.108;2023-08-12T12:59:55;22.50;99.90
31619;DHT22;18230;51.502;7.108;2023-08-12T13:04:56;22.50;99.90
31619;DHT22;18230;51.502;7.108;2023-08-12T13:09:57;22.40;99.90
31619;DHT22;18230;51.502;7.108;2023-08-12T13:14:58;22.40;99.90
31619;DHT22;18230;51.502;7.108;2023-08-12T13:19:58;22.70;99.90
31619;DHT22;18230;51.502;7.108;2023-08-12T13:24:59;22.90;99.90
31619;DHT22;18230;51.502;7.108;2023-08-12T13:30:00;22.90;99.90
31619;DHT22;18230;51.502;7.108;2023-08-12T13:35:01;23.00;99.90
31619;DHT22;18230;51.502;7.108;2023-08-12T13:40:01;23.10;99.90
31619;DHT22;18230;51.502;7.108;2023-08-12T13:45:02;23.30;99.90
31619;DHT22;18230;51.502;7.108;2023-08-12T13:50:03;23.30;99.90
31619;DHT22;18230;51.502;7.108;2023-08-12T13:55:04;23.10;99.90
31619;DHT22;18230;51.502;7.108;2023-08-12T14:00:06;23.00;99.90
31619;DHT22;18230;51.502;7.108;2023-08-12T14:05:10;22.80;99.90
31619;DHT22;18230;51.502;7.108;2023-08-12T14:10:17;22.80;99.90
31619;DHT22;18230;51.502;7.108;2023-08-12T14:15:17;22.60;99.90
31619;DHT22;18230;51.502;7.108;2023-08-12T14:20:18;23.00;99.90
31619;DHT22;18230;51.502;7.108;2023-08-12T14:25:19;23.20;99.90
31619;DHT22;18230;51.502;7.108;2023-08-12T14:30:23;23.50;99.90
31619;DHT22;18230;51.502;7.108;2023-08-12T14:35:24;24.00;99.90
31619;DHT22;18230;51.502;7.108;2023-08-12T14:40:25;24.10;99.90
31619;DHT22;18230;51.502;7.108;2023-08-12T14:45:26;24.30;99.90
31619;DHT22;18230;51.502;7.108;2023-08-12T14:50:26;24.90;99.90
31619;DHT22;18230;51.502;7.108;2023-08-12T14:55:27;24.90;99.90
31619;DHT22;18230;51.502;7.108;2023-08-12T15:00:28;24.60;99.90
31619;DHT22;18230;51.502;7.108;2023-08-12T15:05:28;24.50;99.90
31619;DHT22;18230;51.502;7.108;2023-08-12T15:10:29;24.60;99.90
31619;DHT22;18230;51.502;7.108;2023-08-12T15:15:30;24.90;99.90
31619;DHT22;18230;51.502;7.108;2023-08-12T15:20:30;25.30;99.90
31619;DHT22;18230;51.502;7.108;2023-08-12T15:25:31;25.40;99.90
31619;DHT22;18230;51.502;7.108;2023-08-12T15:30:32;25.70;99.90
31619;DHT22;18230;51.502;7.108;2023-08-12T15:35:33;26.00;99.90
31619;DHT22;18230;51.502;7.108;2023-08-12T15:40:33;26.20;99.90
31619;DHT22;18230;51.502;7.108;2023-08-12T15:45:36;26.20;99.90
31619;DHT22;18230;51.502;7.108;2023-08-12T15:50:43;26.50;99.90
31619;DHT22;18230;51.502;7.108;2023-08-12T15:55:44;26.60;99.90
31619;DHT22;18230;51.502;7.108;2023-08-12T16:00:48;26.70;99.90
31619;DHT22;18230;51.502;7.108;2023-08-12T16:05:49;27.00;99.90
31619;DHT22;18230;51.502;7.108;2023-08-12T16:10:49;26.50;99.90
31619;DHT22;18230;51.502;7.108;2023-08-12T16:15:50;26.20;99.90
31619;DHT22;18230;51.502;7.108;2023-08-12T16:20:51;26.10;99.90
31619;DHT22;18230;51.502;7.108;2023-08-12T16:25:52;26.00;99.90
31619;DHT22;18230;51.502;7.108;2023-08-12T16:30:53;25.90;99.90
31619;DHT22;18230;51.502;7.108;2023-08-12T16:35:53;26.40;99.90
31619;DHT22;18230;51.502;7.108;2023-08-12T16:40:54;26.70;99.90
31619;DHT22;18230;51.502;7.108;2023-08-12T16:45:55;26.90;99.90
31619;DHT22;18230;51.502;7.108;2023-08-12T16:50:55;27.10;99.90
31619;DHT22;18230;51.502;7.108;2023-08-12T16:55:56;27.30;99.90
31619;DHT22;18230;51.502;7.108;2023-08-12T17:00:57;27.10;99.90
31619;DHT22;18230;51.502;7.108;2023-08-12T17:05:57;27.10;99.90
31619;DHT22;18230;51.502;7.108;2023-08-12T17:10:58;26.50;99.90
31619;DHT22;18230;51.502;7.108;2023-08-12T17:16:04;26.50;99.90
31619;DHT22;18230;51.502;7.108;2023-08-12T17:21:04;26.20;99.90
31619;DHT22;18230;51.502;7.108;2023-08-12T17:26:06;25.90;99.90
31619;DHT22;18230;51.502;7.108;2023-08-12T17:31:07;25.80;99.90
31619;DHT22;18230;51.502;7.108;2023-08-12T17:36:09;26.20;99.90
31619;DHT22;18230;51.502;7.108;2023-08-12T17:41:10;26.30;99.90
31619;DHT22;18230;51.502;7.108;2023-08-12T17:46:11;26.40;99.90
31619;DHT22;18230;51.502;7.108;2023-08-12T17:51:13;26.40;99.90
31619;DHT22;18230;51.502;7.108;2023-08-12T17:56:15;26.20;99.90
31619;DHT22;18230;51.502;7.108;2023-08-12T18:01:18;26.10;99.90
31619;DHT22;18230;51.502;7.108;2023-08-12T18:06:19;25.90;99.90
31619;DHT22;18230;51.502;7.108;2023-08-12T18:11:20;25.70;99.90
31619;DHT22;18230;51.502;7.108;2023-08-12T18:16:20;25.50;99.90
31619;DHT22;18230;51.502;7.108;2023-08-12T18:21:21;25.20;99.90
31619;DHT22;18230;51.502;7.108;2023-08-12T18:26:21;24.90;99.90
31619;DHT22;18230;51.502;7.108;2023-08-12T18:31:22;24.90;99.90
31619;DHT22;18230;51.502;7.108;2023-08-12T18:36:23;24.70;99.90
31619;DHT22;18230;51.502;7.108;2023-08-12T18:41:23;24.50;99.90
31619;DHT22;18230;51.502;7.108;2023-08-12T18:46:25;24.30;99.90
31619;DHT22;18230;51.502;7.108;2023-08-12T18:51:25;23.90;99.90
31619;DHT22;18230;51.502;7.108;2023-08-12T18:56:26;23.70;99.90
31619;DHT22;18230;51.502;7.108;2023-08-12T19:01:27;23.50;99.90
31619;DHT22;18230;51.502;7.108;2023-08-12T19:06:28;23.30;99.90
31619;DHT22;18230;51.502;7.108;2023-08-12T19:11:28;23.00;99.90
31619;DHT22;18230;51.502;7.108;2023-08-12T19:16:29;22.70;99.90
31619;DHT22;18230;51.502;7.108;2023-08-12T19:21:30;22.60;99.90
31619;DHT22;18230;51.502;7.108;2023-08-12T19:26:31;22.40;99.90
31619;DHT22;18230;51.502;7.108;2023-08-12T19:31:32;22.30;99.90
31619;DHT22;18230;51.502;7.108;2023-08-12T19:36:32;22.10;99.90
31619;DHT22;18230;51.502;7.108;2023-08-12T19:41:33;22.00;99.90
31619;DHT22;18230;51.502;7.108;2023-08-12T19:46:34;21.90;99.90
31619;DHT22;18230;51.502;7.108;2023-08-12T19:51:34;21.80;99.90
31619;DHT22;18230;51.502;7.108;2023-08-12T19:56:35;21.60;99.90
31619;DHT22;18230;51.502;7.108;2023-08-12T20:01:36;21.40;99.90
31619;DHT22;18230;51.502;7.108;2023-08-12T20:06:36;21.30;99.90
31619;DHT22;18230;51.502;7.108;2023-08-12T20:11:37;21.20;99.90
31619;DHT22;18230;51.502;7.108;2023-08-12T20:16:38;21.20;99.90
31619;DHT22;18230;51.502;7.108;2023-08-12T20:21:38;21.20;99.90
31619;DHT22;18230;51.502;7.108;2023-08-12T20:26:39;21.00;99.90
31619;DHT22;18230;51.502;7.108;2023-08-12T20:31:40;21.00;99.90
31619;DHT22;18230;51.502;7.108;2023-08-12T20:36:40;20.90;99.90
31619;DHT22;18230;51.502;7.108;2023-08-12T20:41:43;20.90;99.90
31619;DHT22;18230;51.502;7.108;2023-08-12T20:46:44;20.70;99.90
31619;DHT22;18230;51.502;7.108;2023-08-12T20:51:44;20.60;99.90
31619;DHT22;18230;51.502;7.108;2023-08-12T20:56:45;20.50;99.90
31619;DHT22;18230;51.502;7.108;2023-08-12T21:01:46;20.50;99.90
31619;DHT22;18230;51.502;7.108;2023-08-12T21:06:48;20.50;99.90
31619;DHT22;18230;51.502;7.108;2023-08-12T21:11:48;20.40;99.90
31619;DHT22;18230;51.502;7.108;2023-08-12T21:17:10;20.30;99.90
31619;DHT22;18230;51.502;7.108;2023-08-12T21:28:21;20.10;99.90
31619;DHT22;18230;51.502;7.108;2023-08-12T21:51:36;20.00;99.90
31619;DHT22;18230;51.502;7.108;2023-08-12T21:56:42;19.90;99.90
31619;DHT22;18230;51.502;7.108;2023-08-12T22:01:53;19.90;99.90
31619;DHT22;18230;51.502;7.108;2023-08-12T22:06:56;19.80;99.90
31619;DHT22;18230;51.502;7.108;2023-08-12T22:12:05;19.80;99.90
31619;DHT22;18230;51.502;7.108;2023-08-12T22:17:11;19.70;99.90
31619;DHT22;18230;51.502;7.108;2023-08-12T22:58:03;19.40;99.90
31619;DHT22;18230;51.502;7.108;2023-08-12T23:15:24;19.40;99.90
31619;DHT22;18230;51.502;7.108;2023-08-12T23:32:16;19.60;99.90
31619;DHT22;18230;51.502;7.108;2023-08-12T23:43:25;19.70;99.90
31619;DHT22;18230;51.502;7.108;2023-08-12T23:48:43;19.70;99.90
